createdAt,value
2016-09-06T00:00:51.249Z,19.39
2016-09-06T00:01:51.276Z,19.37
2016-09-06T00:02:51.524Z,19.34
2016-09-06T00:03:51.234Z,19.4
2016-09-06T00:04:51.259Z,19.44
2016-09-06T00:05:51.286Z,19.36
2016-09-06T00:06:51.621Z,19.37
2016-09-06T00:07:51.336Z,19.4
2016-09-06T00:08:51.353Z,19.37
2016-09-06T00:09:51.376Z,19.41
2016-09-06T00:10:51.400Z,19.39
2016-09-06T00:11:51.428Z,19.41
2016-09-06T00:12:51.455Z,19.34
2016-09-06T00:13:51.473Z,19.34
2016-09-06T00:14:51.497Z,19.41
2016-09-06T00:15:51.523Z,19.34
2016-09-06T00:16:51.542Z,19.33
2016-09-06T00:17:51.567Z,19.44
2016-09-06T00:18:51.589Z,19.34
2016-09-06T00:19:51.614Z,19.36
2016-09-06T00:20:51.637Z,19.44
2016-09-06T00:21:51.658Z,19.44
2016-09-06T00:22:51.688Z,19.41
2016-09-06T00:23:51.707Z,19.33
2016-09-06T00:24:51.734Z,19.39
2016-09-06T00:25:51.755Z,19.29
2016-09-06T00:26:51.780Z,19.3
2016-09-06T00:27:51.807Z,19.34
2016-09-06T00:28:51.828Z,19.27
2016-09-06T00:29:51.856Z,19.3
2016-09-06T00:30:51.889Z,19.3
2016-09-06T00:31:51.899Z,19.31
2016-09-06T00:32:51.925Z,19.34
2016-09-06T00:33:51.940Z,19.37
2016-09-06T00:34:51.970Z,19.3
2016-09-06T00:35:51.992Z,19.29
2016-09-06T00:36:52.017Z,19.3
2016-09-06T00:37:52.037Z,19.3
2016-09-06T00:38:52.063Z,19.26
2016-09-06T00:39:52.088Z,19.3
2016-09-06T00:40:52.111Z,19.31
2016-09-06T00:41:52.446Z,19.24
2016-09-06T00:42:52.159Z,19.26
2016-09-06T00:43:52.199Z,19.24
2016-09-06T00:44:52.203Z,19.26
2016-09-06T00:45:52.227Z,19.26
2016-09-06T00:46:52.257Z,19.24
2016-09-06T00:47:52.277Z,19.31
2016-09-06T00:48:52.295Z,19.22
2016-09-06T00:49:52.322Z,19.33
2016-09-06T00:50:52.352Z,19.3
2016-09-06T00:51:52.381Z,19.26
2016-09-06T00:52:52.401Z,19.15
2016-09-06T00:53:52.426Z,19.15
2016-09-06T00:54:52.450Z,19.21
2016-09-06T00:55:52.471Z,19.24
2016-09-06T00:56:52.808Z,19.14
2016-09-06T00:57:52.520Z,19.21
2016-09-06T00:58:52.541Z,19.21
2016-09-06T00:59:52.571Z,19.18
2016-09-06T01:00:52.609Z,19.11
2016-09-06T01:01:52.615Z,19.15
2016-09-06T01:02:52.639Z,19.19
2016-09-06T01:03:52.664Z,19.07
2016-09-06T01:04:52.684Z,19.07
2016-09-06T01:05:52.711Z,19.12
2016-09-06T01:06:52.732Z,19.04
2016-09-06T01:07:52.762Z,19.07
2016-09-06T01:08:52.779Z,19.08
2016-09-06T01:09:52.808Z,18.99
2016-09-06T01:10:52.828Z,18.93
2016-09-06T01:11:52.851Z,19.02
2016-09-06T01:12:52.875Z,18.99
2016-09-06T01:13:52.897Z,18.95
2016-09-06T01:14:52.922Z,18.99
2016-09-06T01:15:52.946Z,18.92
2016-09-06T01:16:52.967Z,18.95
2016-09-06T01:17:52.991Z,18.96
2016-09-06T01:18:53.021Z,18.92
2016-09-06T01:19:53.039Z,18.9
2016-09-06T01:20:53.072Z,18.9
2016-09-06T01:21:53.088Z,18.89
2016-09-06T01:22:53.111Z,18.9
2016-09-06T01:23:53.139Z,18.96
2016-09-06T01:24:53.157Z,18.95
2016-09-06T01:25:53.178Z,18.88
2016-09-06T01:26:53.202Z,18.9
2016-09-06T01:27:53.226Z,18.92
2016-09-06T01:28:53.247Z,18.9
2016-09-06T01:29:53.287Z,18.95
2016-09-06T01:30:53.298Z,18.9
2016-09-06T01:31:53.319Z,18.93
2016-09-06T01:32:53.346Z,18.84
2016-09-06T01:33:53.368Z,18.84
2016-09-06T01:34:53.399Z,18.84
2016-09-06T01:35:53.416Z,18.74
2016-09-06T01:36:53.438Z,18.81
2016-09-06T01:37:53.464Z,18.77
2016-09-06T01:38:53.483Z,18.86
2016-09-06T01:39:53.508Z,18.77
2016-09-06T01:40:53.532Z,18.8
2016-09-06T01:41:53.557Z,18.81
2016-09-06T01:42:53.590Z,18.78
2016-09-06T01:43:53.605Z,18.78
2016-09-06T01:44:53.627Z,18.75
2016-09-06T01:45:53.646Z,18.78
2016-09-06T01:46:53.671Z,18.75
2016-09-06T01:47:53.692Z,18.77
2016-09-06T01:48:53.718Z,18.77
2016-09-06T01:49:53.740Z,18.78
2016-09-06T01:50:53.787Z,18.74
2016-09-06T01:51:53.787Z,18.66
2016-09-06T01:52:53.826Z,18.73
2016-09-06T01:53:54.151Z,18.66
2016-09-06T01:54:53.859Z,18.7
2016-09-06T01:55:53.880Z,18.65
2016-09-06T01:56:53.906Z,18.75
2016-09-06T01:57:53.926Z,18.66
2016-09-06T01:58:53.951Z,18.73
2016-09-06T01:59:53.986Z,18.65
2016-09-06T02:00:54.000Z,18.65
2016-09-06T02:01:54.022Z,18.66
2016-09-06T02:02:54.048Z,18.68
2016-09-06T02:03:54.074Z,18.73
2016-09-06T02:04:54.093Z,18.62
2016-09-06T02:05:54.117Z,18.63
2016-09-06T02:06:54.138Z,18.62
2016-09-06T02:07:54.161Z,18.62
2016-09-06T02:08:54.191Z,18.63
2016-09-06T02:09:54.213Z,18.56
2016-09-06T02:10:54.233Z,18.62
2016-09-06T02:11:54.254Z,18.59
2016-09-06T02:12:54.282Z,18.58
2016-09-06T02:13:54.302Z,18.58
2016-09-06T02:14:54.327Z,18.58
2016-09-06T02:15:54.350Z,18.58
2016-09-06T02:16:54.369Z,18.62
2016-09-06T02:17:54.397Z,18.62
2016-09-06T02:18:54.419Z,18.55
2016-09-06T02:19:54.441Z,18.62
2016-09-06T02:20:54.466Z,18.62
2016-09-06T02:21:54.488Z,18.58
2016-09-06T02:22:54.513Z,18.56
2016-09-06T02:23:54.534Z,18.58
2016-09-06T02:24:54.558Z,18.56
2016-09-06T02:25:54.582Z,18.59
2016-09-06T02:26:54.603Z,18.62
2016-09-06T02:27:54.627Z,18.59
2016-09-06T02:28:54.651Z,18.52
2016-09-06T02:29:54.677Z,18.58
2016-09-06T02:30:54.697Z,18.5
2016-09-06T02:31:54.720Z,18.55
2016-09-06T02:32:54.742Z,18.5
2016-09-06T02:33:54.766Z,18.58
2016-09-06T02:34:54.789Z,18.5
2016-09-06T02:35:54.811Z,18.53
2016-09-06T02:36:54.839Z,18.52
2016-09-06T02:37:54.861Z,18.52
2016-09-06T02:38:54.881Z,18.45
2016-09-06T02:39:54.914Z,18.55
2016-09-06T02:40:54.928Z,18.55
2016-09-06T02:41:54.953Z,18.49
2016-09-06T02:42:54.978Z,18.47
2016-09-06T02:43:54.997Z,18.55
2016-09-06T02:44:55.022Z,18.49
2016-09-06T02:45:55.049Z,18.5
2016-09-06T02:46:55.068Z,18.5
2016-09-06T02:47:55.091Z,18.41
2016-09-06T02:48:55.115Z,18.49
2016-09-06T02:49:55.139Z,18.55
2016-09-06T02:50:55.162Z,18.49
2016-09-06T02:51:55.185Z,18.5
2016-09-06T02:52:55.207Z,18.47
2016-09-06T02:53:55.232Z,18.49
2016-09-06T02:54:55.257Z,18.49
2016-09-06T02:55:55.284Z,18.5
2016-09-06T02:56:55.304Z,18.45
2016-09-06T02:57:55.320Z,18.45
2016-09-06T02:58:55.347Z,18.43
2016-09-06T02:59:55.373Z,18.43
2016-09-06T03:00:55.392Z,18.4
2016-09-06T03:01:55.418Z,18.43
2016-09-06T03:02:55.443Z,18.41
2016-09-06T03:03:55.462Z,18.5
2016-09-06T03:04:55.492Z,18.44
2016-09-06T03:05:55.507Z,18.38
2016-09-06T03:06:55.535Z,18.4
2016-09-06T03:07:55.553Z,18.41
2016-09-06T03:08:55.578Z,18.44
2016-09-06T03:09:55.596Z,18.49
2016-09-06T03:10:55.625Z,18.45
2016-09-06T03:11:55.967Z,18.41
2016-09-06T03:12:55.671Z,18.35
2016-09-06T03:13:55.697Z,18.43
2016-09-06T03:14:56.029Z,18.45
2016-09-06T03:15:55.739Z,18.44
2016-09-06T03:16:55.761Z,18.47
2016-09-06T03:17:55.792Z,18.44
2016-09-06T03:18:55.809Z,18.5
2016-09-06T03:19:55.831Z,18.5
2016-09-06T03:20:55.859Z,18.47
2016-09-06T03:21:55.879Z,18.45
2016-09-06T03:22:55.899Z,18.43
2016-09-06T03:23:55.922Z,18.52
2016-09-06T03:24:55.952Z,18.47
2016-09-06T03:25:55.973Z,18.5
2016-09-06T03:26:55.996Z,18.52
2016-09-06T03:27:56.022Z,18.43
2016-09-06T03:28:56.040Z,18.43
2016-09-06T03:29:56.072Z,18.37
2016-09-06T03:30:56.083Z,18.38
2016-09-06T03:31:56.121Z,18.5
2016-09-06T03:32:56.130Z,18.49
2016-09-06T03:33:56.150Z,18.55
2016-09-06T03:34:56.187Z,18.47
2016-09-06T03:35:56.199Z,18.43
2016-09-06T03:36:56.346Z,18.47
2016-09-06T03:37:56.347Z,18.45
2016-09-06T03:38:56.382Z,18.49
2016-09-06T03:39:56.379Z,18.44
2016-09-06T03:40:56.389Z,18.55
2016-09-06T03:41:56.398Z,18.52
2016-09-06T03:42:56.420Z,18.45
2016-09-06T03:43:56.415Z,18.43
2016-09-06T03:44:56.414Z,18.53
2016-09-06T03:45:56.430Z,18.44
2016-09-06T03:46:56.491Z,18.43
2016-09-06T03:47:56.501Z,18.41
2016-09-06T03:48:56.500Z,18.45
2016-09-06T03:49:56.624Z,18.45
2016-09-06T03:50:56.633Z,18.5
2016-09-06T03:51:56.641Z,18.45
2016-09-06T03:52:56.674Z,18.45
2016-09-06T03:53:56.673Z,18.45
2016-09-06T03:54:56.682Z,18.43
2016-09-06T03:55:56.692Z,18.47
2016-09-06T03:56:56.700Z,18.52
2016-09-06T03:57:56.710Z,18.5
2016-09-06T03:58:56.729Z,18.5
2016-09-06T03:59:56.752Z,18.53
2016-09-06T04:00:56.777Z,18.53
2016-09-06T04:01:56.799Z,18.53
2016-09-06T04:02:56.849Z,18.47
2016-09-06T04:03:56.846Z,18.49
2016-09-06T04:04:56.871Z,18.52
2016-09-06T04:05:56.892Z,18.44
2016-09-06T04:06:57.229Z,18.44
2016-09-06T04:07:56.938Z,18.47
2016-09-06T04:08:56.963Z,18.49
2016-09-06T04:09:56.985Z,18.44
2016-09-06T04:10:57.007Z,18.41
2016-09-06T04:11:57.027Z,18.37
2016-09-06T04:12:57.051Z,18.44
2016-09-06T04:13:57.078Z,18.41
2016-09-06T04:14:57.095Z,18.41
2016-09-06T04:15:57.120Z,18.41
2016-09-06T04:16:57.141Z,18.44
2016-09-06T04:17:57.172Z,18.34
2016-09-06T04:18:57.187Z,18.37
2016-09-06T04:19:57.212Z,18.4
2016-09-06T04:20:57.232Z,18.33
2016-09-06T04:21:57.259Z,18.37
2016-09-06T04:22:57.285Z,18.37
2016-09-06T04:23:57.302Z,18.41
2016-09-06T04:24:57.327Z,18.33
2016-09-06T04:25:57.359Z,18.28
2016-09-06T04:26:57.372Z,18.19
2016-09-06T04:27:57.417Z,18.29
2016-09-06T04:28:57.419Z,18.31
2016-09-06T04:29:57.457Z,18.31
2016-09-06T04:30:57.488Z,18.31
2016-09-06T04:31:57.803Z,18.29
2016-09-06T04:32:57.508Z,18.25
2016-09-06T04:33:57.539Z,18.28
2016-09-06T04:34:57.555Z,18.23
2016-09-06T04:35:57.587Z,18.22
2016-09-06T04:36:57.604Z,18.26
2016-09-06T04:37:57.629Z,18.2
2016-09-06T04:38:57.663Z,18.22
2016-09-06T04:39:57.678Z,18.18
2016-09-06T04:40:57.695Z,18.18
2016-09-06T04:41:57.719Z,18.16
2016-09-06T04:42:57.742Z,18.22
2016-09-06T04:43:57.772Z,18.25
2016-09-06T04:44:57.787Z,18.25
2016-09-06T04:45:57.810Z,18.2
2016-09-06T04:46:57.831Z,18.23
2016-09-06T04:47:57.859Z,18.2
2016-09-06T04:48:57.880Z,18.22
2016-09-06T04:49:57.899Z,18.23
2016-09-06T04:50:57.926Z,18.26
2016-09-06T04:51:57.945Z,18.22
2016-09-06T04:52:57.976Z,18.23
2016-09-06T04:53:57.997Z,18.19
2016-09-06T04:54:58.018Z,18.25
2016-09-06T04:55:58.042Z,18.2
2016-09-06T04:56:58.061Z,18.22
2016-09-06T04:57:58.083Z,18.2
2016-09-06T04:58:58.108Z,18.23
2016-09-06T04:59:58.243Z,18.23
2016-09-06T05:00:58.252Z,18.2
2016-09-06T05:01:58.273Z,18.2
2016-09-06T05:02:58.284Z,18.25
2016-09-06T05:03:58.292Z,18.29
2016-09-06T05:04:58.301Z,18.22
2016-09-06T05:05:58.309Z,18.23
2016-09-06T05:06:58.309Z,18.28
2016-09-06T05:07:58.317Z,18.19
2016-09-06T05:08:58.337Z,18.2
2016-09-06T05:09:58.396Z,18.34
2016-09-06T05:10:58.397Z,18.31
2016-09-06T05:11:58.403Z,18.22
2016-09-06T05:12:58.529Z,18.33
2016-09-06T05:13:58.536Z,18.28
2016-09-06T05:14:58.545Z,18.28
2016-09-06T05:15:58.567Z,18.33
2016-09-06T05:16:58.577Z,18.34
2016-09-06T05:17:58.585Z,18.31
2016-09-06T05:18:58.595Z,18.29
2016-09-06T05:19:58.603Z,18.34
2016-09-06T05:20:58.612Z,18.33
2016-09-06T05:21:58.956Z,18.35
2016-09-06T05:22:58.653Z,18.33
2016-09-06T05:23:58.682Z,18.35
2016-09-06T05:24:58.707Z,18.37
2016-09-06T05:25:58.736Z,18.28
2016-09-06T05:26:58.746Z,18.33
2016-09-06T05:27:58.773Z,18.38
2016-09-06T05:28:58.794Z,18.31
2016-09-06T05:29:58.815Z,18.34
2016-09-06T05:30:58.841Z,18.37
2016-09-06T05:31:58.861Z,18.37
2016-09-06T05:32:58.886Z,18.28
2016-09-06T05:33:58.912Z,18.35
2016-09-06T05:34:58.940Z,18.41
2016-09-06T05:35:59.269Z,18.45
2016-09-06T05:36:58.979Z,18.4
2016-09-06T05:37:59.007Z,18.34
2016-09-06T05:38:59.026Z,18.41
2016-09-06T05:39:59.050Z,18.4
2016-09-06T05:40:59.068Z,18.35
2016-09-06T05:41:59.091Z,18.4
2016-09-06T05:42:59.117Z,18.47
2016-09-06T05:43:59.144Z,18.41
2016-09-06T05:44:59.157Z,18.41
2016-09-06T05:45:59.185Z,18.5
2016-09-06T05:46:59.212Z,18.4
2016-09-06T05:47:59.230Z,18.47
2016-09-06T05:48:59.250Z,18.5
2016-09-06T05:49:59.280Z,18.47
2016-09-06T05:50:59.302Z,18.47
2016-09-06T05:51:59.323Z,18.5
2016-09-06T05:52:59.347Z,18.5
2016-09-06T05:53:59.367Z,18.49
2016-09-06T05:54:59.393Z,18.52
2016-09-06T05:55:59.411Z,18.58
2016-09-06T05:56:59.437Z,18.49
2016-09-06T05:57:59.456Z,18.55
2016-09-06T05:58:59.484Z,18.58
2016-09-06T05:59:59.505Z,18.59
2016-09-06T06:00:59.532Z,18.6
2016-09-06T06:01:59.553Z,18.55
2016-09-06T06:02:59.579Z,18.59
2016-09-06T06:03:59.598Z,18.63
2016-09-06T06:04:59.632Z,18.66
2016-09-06T06:05:59.645Z,18.6
2016-09-06T06:06:59.666Z,18.59
2016-09-06T06:07:59.689Z,18.71
2016-09-06T06:08:59.718Z,18.62
2016-09-06T06:09:59.736Z,18.65
2016-09-06T06:10:59.758Z,18.7
2016-09-06T06:11:59.783Z,18.7
2016-09-06T06:12:59.808Z,18.7
2016-09-06T06:13:59.826Z,18.66
2016-09-06T06:14:59.851Z,18.65
2016-09-06T06:15:59.877Z,18.77
2016-09-06T06:16:59.896Z,18.78
2016-09-06T06:17:59.924Z,18.74
2016-09-06T06:18:59.941Z,18.74
2016-09-06T06:20:00.001Z,18.75
2016-09-06T06:20:59.987Z,18.74
2016-09-06T06:22:00.018Z,18.78
2016-09-06T06:23:00.455Z,18.8
2016-09-06T06:24:00.061Z,18.89
2016-09-06T06:25:00.078Z,18.86
2016-09-06T06:26:00.223Z,18.84
2016-09-06T06:27:00.228Z,18.8
2016-09-06T06:28:00.237Z,18.9
2016-09-06T06:29:00.712Z,18.86
2016-09-06T06:30:00.407Z,18.92
2016-09-06T06:31:00.414Z,18.89
2016-09-06T06:32:00.422Z,18.9
2016-09-06T06:33:00.431Z,18.89
2016-09-06T06:34:00.439Z,18.84
2016-09-06T06:35:00.448Z,18.92
2016-09-06T06:36:00.454Z,18.92
2016-09-06T06:37:00.456Z,18.95
2016-09-06T06:38:00.606Z,18.9
2016-09-06T06:39:00.514Z,18.93
2016-09-06T06:40:00.514Z,18.89
2016-09-06T06:41:00.521Z,18.98
2016-09-06T06:42:00.569Z,18.99
2016-09-06T06:43:00.578Z,18.99
2016-09-06T06:44:00.609Z,18.9
2016-09-06T06:45:00.610Z,18.89
2016-09-06T06:46:00.626Z,18.93
2016-09-06T06:47:00.630Z,19.04
2016-09-06T06:48:00.636Z,19.07
2016-09-06T06:49:00.645Z,19
2016-09-06T06:50:00.665Z,19.02
2016-09-06T06:51:00.682Z,19.07
2016-09-06T06:52:01.033Z,19.16
2016-09-06T06:53:00.732Z,19.09
2016-09-06T06:54:00.757Z,19.08
2016-09-06T06:55:00.784Z,19.15
2016-09-06T06:56:00.801Z,19.14
2016-09-06T06:57:00.825Z,19.18
2016-09-06T06:58:00.854Z,19.15
2016-09-06T06:59:00.875Z,19.19
2016-09-06T07:00:00.900Z,19.21
2016-09-06T07:01:00.921Z,19.33
2016-09-06T07:02:00.941Z,19.27
2016-09-06T07:03:00.962Z,19.21
2016-09-06T07:04:00.996Z,19.34
2016-09-06T07:05:01.011Z,19.34
2016-09-06T07:06:01.033Z,19.31
2016-09-06T07:07:01.061Z,19.31
2016-09-06T07:08:01.091Z,19.3
2016-09-06T07:09:01.110Z,19.33
2016-09-06T07:10:01.127Z,19.29
2016-09-06T07:11:01.160Z,19.39
2016-09-06T07:12:01.178Z,19.34
2016-09-06T07:13:01.260Z,19.3
2016-09-06T07:14:01.255Z,19.34
2016-09-06T07:15:01.246Z,19.41
2016-09-06T07:16:01.273Z,19.31
2016-09-06T07:17:01.292Z,19.31
2016-09-06T07:18:01.319Z,19.45
2016-09-06T07:19:01.342Z,19.26
2016-09-06T07:20:01.368Z,19.26
2016-09-06T07:21:01.387Z,19.33
2016-09-06T07:22:01.407Z,19.41
2016-09-06T07:23:01.440Z,19.34
2016-09-06T07:24:01.458Z,19.37
2016-09-06T07:25:01.476Z,19.4
2016-09-06T07:26:01.510Z,19.41
2016-09-06T07:27:01.522Z,19.41
2016-09-06T07:28:01.547Z,19.55
2016-09-06T07:29:01.575Z,19.47
2016-09-06T07:30:01.594Z,19.47
2016-09-06T07:31:01.621Z,19.54
2016-09-06T07:32:01.641Z,19.49
2016-09-06T07:33:01.668Z,19.47
2016-09-06T07:34:01.690Z,19.51
2016-09-06T07:35:01.717Z,19.47
2016-09-06T07:36:01.739Z,19.52
2016-09-06T07:37:01.762Z,19.52
2016-09-06T07:38:01.788Z,19.64
2016-09-06T07:39:01.813Z,19.48
2016-09-06T07:40:01.830Z,19.49
2016-09-06T07:41:01.855Z,19.62
2016-09-06T07:42:01.883Z,19.59
2016-09-06T07:43:01.901Z,19.62
2016-09-06T07:44:01.945Z,19.55
2016-09-06T07:45:01.951Z,19.58
2016-09-06T07:46:01.974Z,19.66
2016-09-06T07:47:02.004Z,19.64
2016-09-06T07:48:02.020Z,19.7
2016-09-06T07:49:02.048Z,19.67
2016-09-06T07:50:02.065Z,19.64
2016-09-06T07:51:02.089Z,19.66
2016-09-06T07:52:02.115Z,19.81
2016-09-06T07:53:02.131Z,19.77
2016-09-06T07:54:02.273Z,19.79
2016-09-06T07:55:02.273Z,19.7
2016-09-06T07:56:02.447Z,19.7
2016-09-06T07:57:02.440Z,19.71
2016-09-06T07:58:02.454Z,19.73
2016-09-06T07:59:02.457Z,19.84
2016-09-06T08:00:02.465Z,19.77
2016-09-06T08:01:02.467Z,19.82
2016-09-06T08:02:02.488Z,19.77
2016-09-06T08:03:02.490Z,19.89
2016-09-06T08:04:02.491Z,19.92
2016-09-06T08:05:02.623Z,19.92
2016-09-06T08:06:02.947Z,19.95
2016-09-06T08:07:02.647Z,19.95
2016-09-06T08:08:02.585Z,20
2016-09-06T08:09:02.593Z,20
2016-09-06T08:10:02.650Z,20.04
2016-09-06T08:11:02.638Z,20.03
2016-09-06T08:12:02.668Z,20.07
2016-09-06T08:13:02.656Z,20.16
2016-09-06T08:14:02.653Z,20.18
2016-09-06T08:15:02.660Z,20.1
2016-09-06T08:16:02.689Z,20.18
2016-09-06T08:17:02.707Z,20.11
2016-09-06T08:18:02.775Z,20.19
2016-09-06T08:19:02.764Z,20.13
2016-09-06T08:20:02.782Z,20.19
2016-09-06T08:21:02.801Z,20.28
2016-09-06T08:22:02.833Z,20.19
2016-09-06T08:23:02.851Z,20.26
2016-09-06T08:24:02.893Z,20.29
2016-09-06T08:25:03.214Z,20.25
2016-09-06T08:26:02.987Z,20.26
2016-09-06T08:27:02.949Z,20.26
2016-09-06T08:28:02.966Z,20.26
2016-09-06T08:29:02.995Z,20.31
2016-09-06T08:30:03.036Z,20.29
2016-09-06T08:31:03.050Z,20.36
2016-09-06T08:32:03.085Z,20.39
2016-09-06T08:33:03.094Z,20.34
2016-09-06T08:34:03.122Z,20.4
2016-09-06T08:35:03.139Z,20.44
2016-09-06T08:36:03.162Z,20.47
2016-09-06T08:37:03.185Z,20.41
2016-09-06T08:38:03.218Z,20.5
2016-09-06T08:39:03.231Z,20.55
2016-09-06T08:40:03.266Z,20.41
2016-09-06T08:41:03.328Z,20.48
2016-09-06T08:42:03.305Z,20.47
2016-09-06T08:43:03.330Z,20.52
2016-09-06T08:44:03.360Z,20.55
2016-09-06T08:45:03.378Z,20.51
2016-09-06T08:46:03.718Z,20.52
2016-09-06T08:47:03.428Z,20.56
2016-09-06T08:48:03.448Z,20.58
2016-09-06T08:49:03.474Z,20.58
2016-09-06T08:50:03.519Z,20.55
2016-09-06T08:51:03.520Z,20.52
2016-09-06T08:52:03.560Z,20.55
2016-09-06T08:53:03.572Z,20.62
2016-09-06T08:54:03.609Z,20.62
2016-09-06T08:55:03.621Z,20.6
2016-09-06T08:56:03.642Z,20.62
2016-09-06T08:57:03.666Z,20.63
2016-09-06T08:58:03.696Z,20.62
2016-09-06T08:59:03.738Z,20.67
2016-09-06T09:00:03.752Z,20.77
2016-09-06T09:01:03.767Z,20.7
2016-09-06T09:02:03.787Z,20.77
2016-09-06T09:03:03.822Z,20.8
2016-09-06T09:04:03.947Z,20.87
2016-09-06T09:05:03.860Z,20.74
2016-09-06T09:06:03.884Z,20.77
2016-09-06T09:07:03.912Z,20.87
2016-09-06T09:08:03.931Z,20.95
2016-09-06T09:09:03.960Z,20.96
2016-09-06T09:10:03.983Z,20.95
2016-09-06T09:11:04.013Z,20.99
2016-09-06T09:12:04.268Z,21
2016-09-06T09:13:04.059Z,21.05
2016-09-06T09:14:04.081Z,21.05
2016-09-06T09:15:04.106Z,21.12
2016-09-06T09:16:04.128Z,21.25
2016-09-06T09:17:04.159Z,21.21
2016-09-06T09:18:04.175Z,21.17
2016-09-06T09:19:04.205Z,21.27
2016-09-06T09:20:04.228Z,21.22
2016-09-06T09:21:04.255Z,21.3
2016-09-06T09:22:04.277Z,21.36
2016-09-06T09:23:04.305Z,21.32
2016-09-06T09:24:04.327Z,21.43
2016-09-06T09:25:04.353Z,21.36
2016-09-06T09:26:04.374Z,21.36
2016-09-06T09:27:04.402Z,21.37
2016-09-06T09:28:04.424Z,21.45
2016-09-06T09:29:04.449Z,21.36
2016-09-06T09:30:04.479Z,21.46
2016-09-06T09:31:04.503Z,21.39
2016-09-06T09:32:04.837Z,21.48
2016-09-06T09:33:04.551Z,21.51
2016-09-06T09:34:04.574Z,21.43
2016-09-06T09:35:04.598Z,21.61
2016-09-06T09:36:04.646Z,21.55
2016-09-06T09:37:04.647Z,21.58
2016-09-06T09:38:04.672Z,21.55
2016-09-06T09:39:04.700Z,21.61
2016-09-06T09:40:04.724Z,21.62
2016-09-06T09:41:04.747Z,21.66
2016-09-06T09:42:04.780Z,21.7
2016-09-06T09:43:04.796Z,21.72
2016-09-06T09:44:04.829Z,21.69
2016-09-06T09:45:04.848Z,21.79
2016-09-06T09:46:04.873Z,21.77
2016-09-06T09:47:04.895Z,21.82
2016-09-06T09:48:04.985Z,21.83
2016-09-06T09:49:04.945Z,21.89
2016-09-06T09:50:04.980Z,21.82
2016-09-06T09:51:04.995Z,21.82
2016-09-06T09:52:05.039Z,21.8
2016-09-06T09:53:05.047Z,21.85
2016-09-06T09:54:05.072Z,21.93
2016-09-06T09:55:05.096Z,21.98
2016-09-06T09:56:05.136Z,21.93
2016-09-06T09:57:05.144Z,21.96
2016-09-06T09:58:05.225Z,22
2016-09-06T09:59:05.203Z,22.06
2016-09-06T10:00:05.219Z,21.98
2016-09-06T10:01:05.248Z,22.02
2016-09-06T10:02:05.282Z,22.14
2016-09-06T10:03:05.296Z,22.22
2016-09-06T10:04:05.325Z,22.28
2016-09-06T10:05:05.340Z,22.23
2016-09-06T10:06:05.370Z,22.26
2016-09-06T10:07:05.396Z,22.39
2016-09-06T10:08:05.418Z,22.35
2016-09-06T10:09:05.444Z,22.41
2016-09-06T10:10:05.474Z,22.43
2016-09-06T10:11:05.496Z,22.51
2016-09-06T10:12:05.527Z,22.53
2016-09-06T10:13:05.548Z,22.55
2016-09-06T10:14:05.575Z,22.47
2016-09-06T10:15:05.617Z,22.53
2016-09-06T10:16:05.629Z,22.51
2016-09-06T10:17:05.655Z,22.57
2016-09-06T10:18:05.679Z,22.6
2016-09-06T10:19:05.700Z,22.6
2016-09-06T10:20:05.727Z,22.63
2016-09-06T10:21:05.748Z,22.59
2016-09-06T10:22:05.777Z,22.65
2016-09-06T10:23:05.807Z,22.63
2016-09-06T10:24:05.830Z,22.7
2016-09-06T10:25:05.854Z,22.73
2016-09-06T10:26:05.881Z,22.73
2016-09-06T10:27:05.914Z,22.85
2016-09-06T10:28:05.930Z,22.84
2016-09-06T10:29:05.954Z,22.9
2016-09-06T10:30:06.001Z,22.87
2016-09-06T10:31:06.006Z,23.02
2016-09-06T10:32:06.033Z,23
2016-09-06T10:33:06.061Z,23.1
2016-09-06T10:34:06.083Z,23.24
2016-09-06T10:35:06.108Z,23.21
2016-09-06T10:36:06.135Z,23.31
2016-09-06T10:37:06.159Z,23.34
2016-09-06T10:38:06.210Z,23.46
2016-09-06T10:39:06.211Z,23.59
2016-09-06T10:40:06.553Z,23.73
2016-09-06T10:41:06.267Z,23.76
2016-09-06T10:42:06.285Z,23.73
2016-09-06T10:43:06.316Z,23.8
2016-09-06T10:44:06.338Z,23.91
2016-09-06T10:45:06.368Z,23.83
2016-09-06T10:46:06.390Z,23.93
2016-09-06T10:47:06.420Z,24.02
2016-09-06T10:48:06.440Z,24.03
2016-09-06T10:49:06.471Z,24.08
2016-09-06T10:50:06.493Z,24.17
2016-09-06T10:51:06.523Z,24.21
2016-09-06T10:52:06.547Z,24.26
2016-09-06T10:53:06.574Z,24.38
2016-09-06T10:54:06.599Z,24.29
2016-09-06T10:55:06.629Z,24.42
2016-09-06T10:56:06.656Z,24.5
2016-09-06T10:57:06.679Z,24.53
2016-09-06T10:58:06.702Z,24.6
2016-09-06T10:59:07.043Z,24.69
2016-09-06T11:00:06.759Z,24.69
2016-09-06T11:01:06.788Z,24.81
2016-09-06T11:02:06.819Z,24.81
2016-09-06T11:03:06.846Z,24.81
2016-09-06T11:04:06.868Z,24.8
2016-09-06T11:05:06.889Z,24.92
2016-09-06T11:06:06.914Z,24.84
2016-09-06T11:07:06.943Z,24.88
2016-09-06T11:08:06.972Z,24.84
2016-09-06T11:09:07.000Z,24.96
2016-09-06T11:10:07.022Z,24.95
2016-09-06T11:11:07.048Z,24.99
2016-09-06T11:12:07.079Z,24.99
2016-09-06T11:13:07.101Z,24.96
2016-09-06T11:14:07.132Z,25.03
2016-09-06T11:15:07.154Z,25.06
2016-09-06T11:16:07.183Z,25.11
2016-09-06T11:17:07.207Z,25.14
2016-09-06T11:18:07.238Z,25.13
2016-09-06T11:19:07.269Z,25.21
2016-09-06T11:20:07.289Z,25.18
2016-09-06T11:21:07.314Z,25.23
2016-09-06T11:22:07.343Z,25.31
2016-09-06T11:23:07.371Z,25.44
2016-09-06T11:24:07.400Z,25.47
2016-09-06T11:25:07.424Z,25.55
2016-09-06T11:26:07.449Z,25.58
2016-09-06T11:27:07.478Z,25.7
2016-09-06T11:28:07.635Z,25.68
2016-09-06T11:29:07.533Z,25.78
2016-09-06T11:30:07.561Z,25.87
2016-09-06T11:31:07.587Z,25.88
2016-09-06T11:32:07.610Z,25.95
2016-09-06T11:33:07.644Z,25.99
2016-09-06T11:34:07.668Z,26.06
2016-09-06T11:35:07.819Z,25.96
2016-09-06T11:36:07.826Z,26.13
2016-09-06T11:37:07.859Z,26.15
2016-09-06T11:38:07.868Z,26.19
2016-09-06T11:39:07.879Z,26.25
2016-09-06T11:40:07.875Z,26.16
2016-09-06T11:41:07.944Z,26.19
2016-09-06T11:42:07.955Z,26.23
2016-09-06T11:43:07.952Z,26.31
2016-09-06T11:44:07.963Z,26.28
2016-09-06T11:45:08.074Z,26.26
2016-09-06T11:46:08.097Z,26.22
2016-09-06T11:47:08.104Z,26.23
2016-09-06T11:48:08.131Z,26.33
2016-09-06T11:49:08.134Z,26.25
2016-09-06T11:50:08.145Z,26.22
2016-09-06T11:51:08.154Z,26.23
2016-09-06T11:52:08.164Z,26.28
2016-09-06T11:53:08.187Z,26.25
2016-09-06T11:54:08.226Z,26.29
2016-09-06T11:55:08.243Z,26.22
2016-09-06T11:56:08.280Z,26.28
2016-09-06T11:57:08.305Z,26.23
2016-09-06T11:58:08.329Z,26.33
2016-09-06T11:59:08.352Z,26.31
2016-09-06T12:00:08.383Z,26.36
2016-09-06T12:01:08.413Z,26.44
2016-09-06T12:02:08.445Z,26.45
2016-09-06T12:03:08.472Z,26.53
2016-09-06T12:04:08.498Z,26.58
2016-09-06T12:05:08.529Z,26.59
2016-09-06T12:06:08.553Z,26.59
2016-09-06T12:07:08.581Z,26.63
2016-09-06T12:08:08.606Z,26.6
2016-09-06T12:09:08.634Z,26.7
2016-09-06T12:10:08.662Z,26.75
2016-09-06T12:11:08.691Z,26.71
2016-09-06T12:12:08.724Z,26.83
2016-09-06T12:13:08.748Z,26.78
2016-09-06T12:14:08.779Z,26.81
2016-09-06T12:15:08.804Z,26.81
2016-09-06T12:16:08.832Z,26.77
2016-09-06T12:17:08.863Z,26.88
2016-09-06T12:18:08.889Z,26.9
2016-09-06T12:19:08.926Z,26.92
2016-09-06T12:20:08.947Z,26.9
2016-09-06T12:21:08.972Z,26.95
2016-09-06T12:22:09.003Z,26.93
2016-09-06T12:23:09.029Z,26.97
2016-09-06T12:24:09.060Z,27.02
2016-09-06T12:25:09.084Z,26.97
2016-09-06T12:26:09.120Z,27.07
2016-09-06T12:27:09.141Z,27
2016-09-06T12:28:09.179Z,27.02
2016-09-06T12:29:09.200Z,26.88
2016-09-06T12:30:09.547Z,26.95
2016-09-06T12:31:09.258Z,26.9
2016-09-06T12:32:09.288Z,26.93
2016-09-06T12:33:09.323Z,26.9
2016-09-06T12:34:09.341Z,26.99
2016-09-06T12:35:09.371Z,26.95
2016-09-06T12:36:09.399Z,27.03
2016-09-06T12:37:09.430Z,26.95
2016-09-06T12:38:09.456Z,27.05
2016-09-06T12:39:09.487Z,27
2016-09-06T12:40:09.514Z,27.07
2016-09-06T12:41:09.543Z,27.14
2016-09-06T12:42:09.568Z,27.2
2016-09-06T12:43:09.600Z,27.21
2016-09-06T12:44:09.624Z,27.26
2016-09-06T12:45:09.660Z,27.3
2016-09-06T12:46:09.796Z,27.36
2016-09-06T12:47:09.806Z,27.36
2016-09-06T12:48:09.968Z,27.45
2016-09-06T12:49:09.977Z,27.4
2016-09-06T12:50:09.991Z,27.35
2016-09-06T12:51:10.003Z,27.35
2016-09-06T12:52:10.000Z,27.4
2016-09-06T12:53:10.008Z,27.45
2016-09-06T12:54:10.017Z,27.37
2016-09-06T12:55:10.171Z,27.45
2016-09-06T12:56:10.169Z,27.48
2016-09-06T12:57:10.328Z,27.47